Portada
METAR-TAF:

METAR-TAF

Aeropuertos :

Base Aérea de Morón

Morón de la Frontera, España

latitud: 37-09N, longitud: 005-37W, altitud: 87 m

Observación

El informe se hizo hace 18 minutos, a las 16:00 UTC
Viento 5 kt del oeste-suroeste, variando entre sur-suroeste y oeste-noroeste
Temperatura 25°C
Humedad 41%
Presión 1013 hPa
Visibilidad 10 km o más
Escasas nubes a una altura de 5000 ft

METAR: LEMO 171600Z 25005KT 210V300 9999 FEW050 25/11 Q1013 NOSIG

Hora: 18:18 (16:18 UTC)

Pronóstico

El informe se hizo hace 2 horas y 18 minutos, a las 14:00 UTC
Pronóstico válido del 17 a las 15 UTC al 17 a las 24 UTC
Viento 9 kt del oeste-suroeste
Visibilidad 10 km o más
Escasas nubes a una altura de 4000 ft

TAF: LEMO 171400Z 1715/1724 25009KT 9999 FEW040

Observaciones y pronósticos meteorológicos de más de 4000 aeropuertos (mensajes METAR y TAF).

Los puntos amarillos y rojos representan las estaciones disponibles.

Ponga el ratón en el punto deseado para ver el nombre de la estación.

Haga clic para ver las observaciones y los pronósticos meteorológicos.

Para cambiar el mapa : haga clic en los botones verdes con una cruz de color negro para hacer un zoom, en el botón verde con un guión para alejar o en las flechas verdes para mapas adyacentes.


METAR-TAF: